sensor_id;sensor_type;location;lat;lon;timestamp;P1;durP1;ratioP1;P2;durP2;ratioP2
48026;SDS011;50714;49.208;5.364;2022-09-11T00:04:53;1.80;;;1.58;;
48026;SDS011;50714;49.208;5.364;2022-09-11T00:14:54;3.42;;;2.17;;
48026;SDS011;50714;49.208;5.364;2022-09-11T00:24:54;3.05;;;2.30;;
48026;SDS011;50714;49.208;5.364;2022-09-11T00:34:55;2.58;;;2.17;;
48026;SDS011;50714;49.208;5.364;2022-09-11T00:44:56;3.15;;;2.75;;
48026;SDS011;50714;49.208;5.364;2022-09-11T00:55:08;2.20;;;2.00;;
48026;SDS011;50714;49.208;5.364;2022-09-11T01:05:12;3.17;;;2.88;;
48026;SDS011;50714;49.208;5.364;2022-09-11T01:15:13;3.42;;;2.90;;
48026;SDS011;50714;49.208;5.364;2022-09-11T01:35:25;4.38;;;3.95;;
48026;SDS011;50714;49.208;5.364;2022-09-11T01:45:36;4.78;;;3.65;;
48026;SDS011;50714;49.208;5.364;2022-09-11T01:55:43;4.45;;;3.75;;
48026;SDS011;50714;49.208;5.364;2022-09-11T02:05:49;4.82;;;4.32;;
48026;SDS011;50714;49.208;5.364;2022-09-11T02:15:58;4.20;;;3.63;;
48026;SDS011;50714;49.208;5.364;2022-09-11T02:26:05;4.22;;;3.83;;
48026;SDS011;50714;49.208;5.364;2022-09-11T02:36:28;4.80;;;4.25;;
48026;SDS011;50714;49.208;5.364;2022-09-11T02:46:53;4.30;;;3.85;;
48026;SDS011;50714;49.208;5.364;2022-09-11T02:57:13;4.72;;;4.10;;
48026;SDS011;50714;49.208;5.364;2022-09-11T03:07:19;4.88;;;4.25;;
48026;SDS011;50714;49.208;5.364;2022-09-11T03:17:19;5.43;;;4.75;;
48026;SDS011;50714;49.208;5.364;2022-09-11T03:27:20;5.90;;;4.53;;
48026;SDS011;50714;49.208;5.364;2022-09-11T03:37:22;5.85;;;4.85;;
48026;SDS011;50714;49.208;5.364;2022-09-11T03:47:23;5.97;;;5.38;;
48026;SDS011;50714;49.208;5.364;2022-09-11T03:57:23;5.20;;;4.50;;
48026;SDS011;50714;49.208;5.364;2022-09-11T04:07:24;6.10;;;5.07;;
48026;SDS011;50714;49.208;5.364;2022-09-11T04:17:24;4.93;;;4.43;;
48026;SDS011;50714;49.208;5.364;2022-09-11T04:27:25;6.70;;;5.93;;
48026;SDS011;50714;49.208;5.364;2022-09-11T04:37:26;6.43;;;5.80;;
48026;SDS011;50714;49.208;5.364;2022-09-11T04:47:27;7.18;;;5.95;;
48026;SDS011;50714;49.208;5.364;2022-09-11T04:57:29;6.70;;;5.95;;
48026;SDS011;50714;49.208;5.364;2022-09-11T05:07:30;6.43;;;5.55;;
48026;SDS011;50714;49.208;5.364;2022-09-11T05:17:31;7.10;;;6.32;;
48026;SDS011;50714;49.208;5.364;2022-09-11T05:27:31;7.63;;;5.75;;
48026;SDS011;50714;49.208;5.364;2022-09-11T05:37:31;5.85;;;4.95;;
48026;SDS011;50714;49.208;5.364;2022-09-11T05:47:32;6.13;;;5.18;;
48026;SDS011;50714;49.208;5.364;2022-09-11T05:57:32;5.88;;;4.97;;
48026;SDS011;50714;49.208;5.364;2022-09-11T06:07:33;4.72;;;4.07;;
48026;SDS011;50714;49.208;5.364;2022-09-11T06:17:34;4.85;;;4.32;;
48026;SDS011;50714;49.208;5.364;2022-09-11T06:27:34;4.65;;;4.13;;
48026;SDS011;50714;49.208;5.364;2022-09-11T06:37:34;5.07;;;4.57;;
48026;SDS011;50714;49.208;5.364;2022-09-11T06:47:35;4.90;;;3.90;;
48026;SDS011;50714;49.208;5.364;2022-09-11T06:57:35;4.57;;;3.58;;
48026;SDS011;50714;49.208;5.364;2022-09-11T07:07:35;4.00;;;3.17;;
48026;SDS011;50714;49.208;5.364;2022-09-11T07:17:38;4.55;;;3.58;;
48026;SDS011;50714;49.208;5.364;2022-09-11T07:27:39;5.45;;;4.55;;
48026;SDS011;50714;49.208;5.364;2022-09-11T07:37:40;5.20;;;3.70;;
48026;SDS011;50714;49.208;5.364;2022-09-11T07:47:40;3.85;;;2.47;;
48026;SDS011;50714;49.208;5.364;2022-09-11T07:57:40;3.15;;;2.72;;
48026;SDS011;50714;49.208;5.364;2022-09-11T08:07:41;3.20;;;2.83;;
48026;SDS011;50714;49.208;5.364;2022-09-11T08:17:41;4.03;;;2.90;;
48026;SDS011;50714;49.208;5.364;2022-09-11T08:27:41;3.50;;;2.65;;
48026;SDS011;50714;49.208;5.364;2022-09-11T08:37:42;2.55;;;2.10;;
48026;SDS011;50714;49.208;5.364;2022-09-11T08:47:48;3.00;;;2.15;;
48026;SDS011;50714;49.208;5.364;2022-09-11T08:57:53;3.15;;;2.28;;
48026;SDS011;50714;49.208;5.364;2022-09-11T09:08:03;3.03;;;2.50;;
48026;SDS011;50714;49.208;5.364;2022-09-11T09:18:30;2.70;;;2.10;;
48026;SDS011;50714;49.208;5.364;2022-09-11T09:28:42;2.17;;;1.65;;
48026;SDS011;50714;49.208;5.364;2022-09-11T09:38:45;2.88;;;1.63;;
48026;SDS011;50714;49.208;5.364;2022-09-11T09:48:46;1.70;;;1.50;;
48026;SDS011;50714;49.208;5.364;2022-09-11T10:19:40;3.03;;;1.83;;
48026;SDS011;50714;49.208;5.364;2022-09-11T10:29:46;2.22;;;1.60;;
48026;SDS011;50714;49.208;5.364;2022-09-11T10:39:53;1.77;;;1.63;;
48026;SDS011;50714;49.208;5.364;2022-09-11T11:00:19;2.35;;;1.70;;
48026;SDS011;50714;49.208;5.364;2022-09-11T11:52:39;1.30;;;1.20;;
48026;SDS011;50714;49.208;5.364;2022-09-11T12:02:52;1.27;;;0.93;;
48026;SDS011;50714;49.208;5.364;2022-09-11T12:13:00;1.15;;;1.05;;
48026;SDS011;50714;49.208;5.364;2022-09-11T12:23:05;0.80;;;0.80;;
48026;SDS011;50714;49.208;5.364;2022-09-11T12:53:43;1.10;;;1.00;;
48026;SDS011;50714;49.208;5.364;2022-09-11T13:13:49;1.02;;;0.95;;
48026;SDS011;50714;49.208;5.364;2022-09-11T13:23:51;1.55;;;1.00;;
48026;SDS011;50714;49.208;5.364;2022-09-11T13:33:52;0.98;;;0.82;;
48026;SDS011;50714;49.208;5.364;2022-09-11T13:43:54;0.90;;;0.80;;
48026;SDS011;50714;49.208;5.364;2022-09-11T14:04:40;1.30;;;0.90;;
48026;SDS011;50714;49.208;5.364;2022-09-11T14:14:41;0.77;;;0.77;;
48026;SDS011;50714;49.208;5.364;2022-09-11T14:24:53;0.80;;;0.80;;
48026;SDS011;50714;49.208;5.364;2022-09-11T14:34:56;0.70;;;0.70;;
48026;SDS011;50714;49.208;5.364;2022-09-11T14:44:57;0.75;;;0.75;;
48026;SDS011;50714;49.208;5.364;2022-09-11T14:54:58;0.88;;;0.88;;
48026;SDS011;50714;49.208;5.364;2022-09-11T15:04:59;0.90;;;0.90;;
48026;SDS011;50714;49.208;5.364;2022-09-11T15:14:59;0.82;;;0.82;;
48026;SDS011;50714;49.208;5.364;2022-09-11T15:25:02;0.68;;;0.68;;
48026;SDS011;50714;49.208;5.364;2022-09-11T15:35:03;1.17;;;0.88;;
48026;SDS011;50714;49.208;5.364;2022-09-11T15:45:04;0.70;;;0.70;;
48026;SDS011;50714;49.208;5.364;2022-09-11T15:55:06;0.95;;;0.90;;
48026;SDS011;50714;49.208;5.364;2022-09-11T16:05:08;0.80;;;0.80;;
48026;SDS011;50714;49.208;5.364;2022-09-11T16:15:09;1.00;;;0.80;;
48026;SDS011;50714;49.208;5.364;2022-09-11T16:25:11;0.75;;;0.75;;
48026;SDS011;50714;49.208;5.364;2022-09-11T16:35:12;0.80;;;0.80;;
48026;SDS011;50714;49.208;5.364;2022-09-11T16:45:13;0.82;;;0.77;;
48026;SDS011;50714;49.208;5.364;2022-09-11T16:55:13;0.80;;;0.80;;
48026;SDS011;50714;49.208;5.364;2022-09-11T17:05:14;1.33;;;0.80;;
48026;SDS011;50714;49.208;5.364;2022-09-11T17:15:16;0.77;;;0.70;;
48026;SDS011;50714;49.208;5.364;2022-09-11T17:25:18;0.90;;;0.80;;
48026;SDS011;50714;49.208;5.364;2022-09-11T17:35:18;0.70;;;0.70;;
48026;SDS011;50714;49.208;5.364;2022-09-11T17:45:19;1.08;;;0.95;;
48026;SDS011;50714;49.208;5.364;2022-09-11T17:55:19;1.63;;;0.90;;
48026;SDS011;50714;49.208;5.364;2022-09-11T18:05:20;0.95;;;0.90;;
48026;SDS011;50714;49.208;5.364;2022-09-11T18:15:21;1.17;;;1.05;;
48026;SDS011;50714;49.208;5.364;2022-09-11T18:25:22;1.13;;;1.08;;
48026;SDS011;50714;49.208;5.364;2022-09-11T18:35:24;0.98;;;0.98;;
48026;SDS011;50714;49.208;5.364;2022-09-11T18:45:24;1.42;;;1.10;;
48026;SDS011;50714;49.208;5.364;2022-09-11T18:55:27;1.80;;;1.25;;
48026;SDS011;50714;49.208;5.364;2022-09-11T19:05:28;1.25;;;1.15;;
48026;SDS011;50714;49.208;5.364;2022-09-11T19:15:30;1.77;;;1.20;;
48026;SDS011;50714;49.208;5.364;2022-09-11T19:25:32;1.45;;;1.02;;
48026;SDS011;50714;49.208;5.364;2022-09-11T19:35:34;1.15;;;1.05;;
48026;SDS011;50714;49.208;5.364;2022-09-11T19:45:34;1.38;;;1.20;;
48026;SDS011;50714;49.208;5.364;2022-09-11T19:55:36;0.90;;;0.90;;
48026;SDS011;50714;49.208;5.364;2022-09-11T20:05:39;1.10;;;1.00;;
48026;SDS011;50714;49.208;5.364;2022-09-11T20:15:40;1.42;;;1.20;;
48026;SDS011;50714;49.208;5.364;2022-09-11T20:25:41;0.90;;;0.90;;
48026;SDS011;50714;49.208;5.364;2022-09-11T20:35:41;1.20;;;1.10;;
48026;SDS011;50714;49.208;5.364;2022-09-11T20:45:42;2.15;;;1.50;;
48026;SDS011;50714;49.208;5.364;2022-09-11T20:55:42;1.67;;;1.25;;
48026;SDS011;50714;49.208;5.364;2022-09-11T21:05:42;1.23;;;1.13;;
48026;SDS011;50714;49.208;5.364;2022-09-11T21:15:44;1.38;;;1.20;;
48026;SDS011;50714;49.208;5.364;2022-09-11T21:25:46;1.60;;;1.33;;
48026;SDS011;50714;49.208;5.364;2022-09-11T21:35:50;1.55;;;1.45;;
48026;SDS011;50714;49.208;5.364;2022-09-11T21:45:51;1.83;;;1.02;;
48026;SDS011;50714;49.208;5.364;2022-09-11T21:55:52;1.27;;;1.17;;
48026;SDS011;50714;49.208;5.364;2022-09-11T22:05:52;1.35;;;1.25;;
48026;SDS011;50714;49.208;5.364;2022-09-11T22:15:54;1.40;;;1.30;;
48026;SDS011;50714;49.208;5.364;2022-09-11T22:25:58;1.52;;;1.20;;
48026;SDS011;50714;49.208;5.364;2022-09-11T22:46:09;1.25;;;1.05;;
48026;SDS011;50714;49.208;5.364;2022-09-11T22:56:11;2.13;;;1.50;;
48026;SDS011;50714;49.208;5.364;2022-09-11T23:06:12;1.10;;;1.00;;
48026;SDS011;50714;49.208;5.364;2022-09-11T23:16:31;1.50;;;1.10;;
48026;SDS011;50714;49.208;5.364;2022-09-11T23:26:32;2.33;;;1.35;;
48026;SDS011;50714;49.208;5.364;2022-09-11T23:36:33;1.33;;;1.20;;
48026;SDS011;50714;49.208;5.364;2022-09-11T23:46:34;2.30;;;1.67;;
48026;SDS011;50714;49.208;5.364;2022-09-11T23:56:34;1.95;;;1.27;;
